Time;durP1;ratioP1;P1;durP2;ratioP2;P2;SDS_P1;SDS_P2;PMS_P1;PMS_P2;Temp;Humidity;BMP_temperature;BMP_pressure;BME280_temperature;BME280_humidity;BME280_pressure;Samples;Min_cycle;Max_cycle;Signal;HPM_P1;HPM_P2
2021/07/23 00:01:03;;;;;;;32.17;21.52;;;16.60;84.50;;;;;;5029236;28;20025;-68
2021/07/23 00:03:28;;;;;;;29.15;21.38;;;16.60;84.50;;;;;;5034447;28;20029;-69
2021/07/23 00:05:55;;;;;;;29.50;20.70;;;16.60;84.30;;;;;;5023248;28;20038;-69
2021/07/23 00:08:21;;;;;;;31.70;21.17;;;16.50;84.50;;;;;;5030444;28;20128;-69
2021/07/23 00:10:47;;;;;;;27.42;20.75;;;16.50;84.80;;;;;;5029443;28;20436;-69
2021/07/23 00:13:12;;;;;;;32.35;21.17;;;16.50;85.00;;;;;;5033401;28;20099;-70
2021/07/23 00:15:38;;;;;;;30.60;20.00;;;16.40;85.10;;;;;;5031594;28;20061;-69
2021/07/23 00:18:04;;;;;;;32.03;22.30;;;16.30;85.40;;;;;;5029378;28;20534;-69
2021/07/23 00:20:30;;;;;;;31.75;22.33;;;16.20;85.60;;;;;;5028674;28;20041;-69
2021/07/23 00:22:55;;;;;;;33.60;21.92;;;16.20;85.90;;;;;;5029280;28;20388;-70
2021/07/23 00:25:21;;;;;;;30.92;21.83;;;16.10;86.00;;;;;;5026199;28;20511;-73
2021/07/23 00:27:47;;;;;;;30.67;21.55;;;16.10;86.10;;;;;;5030947;28;20052;-69
2021/07/23 00:30:13;;;;;;;32.08;22.80;;;16.10;86.20;;;;;;5030858;28;20033;-70
2021/07/23 00:32:40;;;;;;;31.80;22.50;;;16.10;86.20;;;;;;5031174;28;20102;-69
2021/07/23 00:35:07;;;;;;;35.40;23.25;;;16.10;86.10;;;;;;5025394;28;20087;-68
2021/07/23 00:37:32;;;;;;;31.52;22.85;;;16.00;86.40;;;;;;5030866;28;20078;-73
2021/07/23 00:39:58;;;;;;;32.08;21.58;;;16.00;86.50;;;;;;5029600;28;20045;-70
2021/07/23 00:42:41;;;;;;;29.75;21.60;;;16.00;86.30;;;;;;5027451;28;20081;-69
2021/07/23 00:45:07;;;;;;;27.67;20.75;;;16.00;86.20;;;;;;5026230;28;20037;-71
2021/07/23 00:47:34;;;;;;;29.83;20.17;;;16.10;85.80;;;;;;5040194;28;20578;-69
2021/07/23 00:50:00;;;;;;;27.70;19.42;;;16.10;85.60;;;;;;5027425;28;20121;-70
2021/07/23 00:52:27;;;;;;;28.33;20.13;;;16.10;85.40;;;;;;5030253;28;20528;-69
2021/07/23 00:54:53;;;;;;;27.10;19.85;;;16.10;85.30;;;;;;5034195;28;20030;-72
2021/07/23 00:57:19;;;;;;;26.77;19.08;;;16.10;85.20;;;;;;5028533;28;20040;-69
2021/07/23 00:59:45;;;;;;;29.60;20.40;;;16.10;85.10;;;;;;5025659;28;20057;-69
2021/07/23 01:02:12;;;;;;;25.60;19.67;;;16.10;84.80;;;;;;5020270;28;20053;-69
2021/07/23 01:04:39;;;;;;;28.65;19.65;;;16.10;84.70;;;;;;5028292;28;20083;-69
2021/07/23 01:07:05;;;;;;;25.75;19.67;;;16.10;84.70;;;;;;5015805;28;20041;-70
2021/07/23 01:09:31;;;;;;;23.20;18.10;;;16.10;84.60;;;;;;5033855;28;20029;-69
2021/07/23 01:11:58;;;;;;;28.48;19.75;;;16.10;84.30;;;;;;5027745;28;20033;-69
2021/07/23 01:14:25;;;;;;;28.08;19.45;;;16.10;84.40;;;;;;5032771;28;20033;-69
2021/07/23 01:16:50;;;;;;;27.95;18.83;;;16.10;84.70;;;;;;5038153;28;20041;-69
2021/07/23 01:19:18;;;;;;;25.77;18.63;;;16.10;84.40;;;;;;5032980;28;20132;-72
2021/07/23 01:21:48;;;;;;;24.60;18.48;;;16.10;84.20;;;;;;5025755;28;20175;-70
2021/07/23 01:24:14;;;;;;;24.17;18.02;;;16.00;83.90;;;;;;5026785;28;20504;-69
2021/07/23 01:26:40;;;;;;;24.30;17.83;;;15.90;84.40;;;;;;5032893;28;20060;-70
2021/07/23 01:29:06;;;;;;;28.52;18.85;;;15.80;84.30;;;;;;5029053;28;20075;-70
2021/07/23 01:31:31;;;;;;;25.77;18.30;;;15.70;84.30;;;;;;5027138;28;21454;-71
2021/07/23 01:33:57;;;;;;;25.55;17.70;;;15.70;84.50;;;;;;5032512;28;20798;-70
2021/07/23 01:36:25;;;;;;;23.40;17.08;;;15.70;84.40;;;;;;5028823;28;20091;-70
2021/07/23 01:38:54;;;;;;;25.50;18.08;;;15.70;84.30;;;;;;5030712;28;20037;-69
2021/07/23 01:41:21;;;;;;;23.70;17.00;;;15.70;84.00;;;;;;5026835;28;20123;-72
2021/07/23 01:43:47;;;;;;;22.98;16.20;;;15.60;83.80;;;;;;5032173;28;20040;-72
2021/07/23 01:46:12;;;;;;;21.00;15.55;;;15.60;83.60;;;;;;5032259;28;20029;-68
2021/07/23 01:48:38;;;;;;;23.90;16.42;;;15.60;83.60;;;;;;5031300;28;20039;-69
2021/07/23 01:51:04;;;;;;;20.60;15.30;;;15.60;83.50;;;;;;5025467;28;20044;-71
2021/07/23 01:53:29;;;;;;;21.35;15.25;;;15.60;83.50;;;;;;5029280;28;20037;-70
2021/07/23 01:55:55;;;;;;;22.02;15.27;;;15.60;83.50;;;;;;5027777;28;20029;-73
2021/07/23 01:58:21;;;;;;;20.90;15.02;;;15.60;83.40;;;;;;5030657;28;20044;-70
2021/07/23 02:00:46;;;;;;;22.60;16.73;;;15.50;83.30;;;;;;5032456;28;20044;-70
2021/07/23 02:03:12;;;;;;;21.63;15.43;;;15.50;83.30;;;;;;5028456;28;20037;-69
2021/07/23 02:05:38;;;;;;;21.67;14.98;;;15.50;83.10;;;;;;5024280;28;20034;-69
2021/07/23 02:08:03;;;;;;;20.92;14.38;;;15.50;83.10;;;;;;5029852;28;20036;-71
2021/07/23 02:10:29;;;;;;;21.02;14.80;;;15.50;83.00;;;;;;5028763;28;20029;-69
2021/07/23 02:12:56;;;;;;;20.60;13.70;;;15.50;82.90;;;;;;5031523;28;20404;-70
2021/07/23 02:15:22;;;;;;;20.23;14.43;;;15.40;82.70;;;;;;5023235;28;20037;-68
2021/07/23 02:17:48;;;;;;;20.55;13.45;;;15.40;82.70;;;;;;5027795;28;20029;-70
2021/07/23 02:20:14;;;;;;;19.98;13.48;;;15.40;82.40;;;;;;5023321;28;20400;-69
2021/07/23 02:22:39;;;;;;;18.85;13.77;;;15.40;82.10;;;;;;5025182;28;20625;-69
2021/07/23 02:25:06;;;;;;;21.92;14.23;;;15.40;82.20;;;;;;5021028;28;20055;-70
2021/07/23 02:27:34;;;;;;;20.55;13.60;;;15.40;82.20;;;;;;5036203;28;20032;-69
2021/07/23 02:30:01;;;;;;;19.30;14.13;;;15.40;82.30;;;;;;5033681;28;20060;-69
2021/07/23 02:32:27;;;;;;;19.80;13.73;;;15.40;82.30;;;;;;5030128;28;20396;-68
2021/07/23 02:34:52;;;;;;;18.75;13.68;;;15.40;82.20;;;;;;5022821;28;20042;-68
2021/07/23 02:37:18;;;;;;;20.50;14.00;;;15.40;82.10;;;;;;5030686;28;20036;-69
2021/07/23 02:39:44;;;;;;;17.38;13.70;;;15.40;82.00;;;;;;5028559;28;20144;-69
2021/07/23 02:42:09;;;;;;;19.95;14.10;;;15.40;82.10;;;;;;5029878;28;20041;-69
2021/07/23 02:44:35;;;;;;;21.00;13.48;;;15.30;82.10;;;;;;5028394;28;20044;-70
2021/07/23 02:47:01;;;;;;;19.98;14.35;;;15.30;82.00;;;;;;5023355;28;20034;-70
2021/07/23 02:49:26;;;;;;;21.45;14.18;;;15.30;81.90;;;;;;5026938;28;20095;-69
2021/07/23 02:51:52;;;;;;;19.85;14.88;;;15.20;82.00;;;;;;5031569;28;20391;-69
2021/07/23 02:54:18;;;;;;;20.13;14.00;;;15.10;82.10;;;;;;5027440;28;20034;-68
2021/07/23 02:56:43;;;;;;;18.67;13.73;;;15.10;82.20;;;;;;5028420;28;20037;-70
2021/07/23 02:59:09;;;;;;;19.45;13.43;;;15.10;82.30;;;;;;5027639;28;20374;-69
2021/07/23 03:01:37;;;;;;;17.92;12.80;;;15.10;82.20;;;;;;5025228;28;20069;-68
2021/07/23 03:04:03;;;;;;;20.60;13.82;;;15.10;82.20;;;;;;5027716;28;20037;-72
2021/07/23 03:06:29;;;;;;;19.85;13.40;;;15.10;82.00;;;;;;5037687;28;20120;-69
2021/07/23 03:08:54;;;;;;;20.75;14.48;;;15.10;82.00;;;;;;5029613;28;20132;-69
2021/07/23 03:11:20;;;;;;;17.45;13.00;;;15.10;81.90;;;;;;5025685;28;20416;-68
2021/07/23 03:13:46;;;;;;;21.27;13.38;;;15.10;81.90;;;;;;5029765;28;20388;-68
2021/07/23 03:16:14;;;;;;;22.38;14.40;;;15.00;81.80;;;;;;5029418;28;20511;-68
2021/07/23 03:18:41;;;;;;;20.27;14.10;;;15.00;81.90;;;;;;5025065;28;20477;-70
2021/07/23 03:21:10;;;;;;;20.85;13.35;;;14.80;82.20;;;;;;5027832;28;20404;-72
2021/07/23 03:23:36;;;;;;;18.30;13.52;;;14.80;82.50;;;;;;5028042;28;20133;-68
2021/07/23 03:26:08;;;;;;;18.45;13.75;;;14.70;82.80;;;;;;5029555;28;20393;-69
2021/07/23 03:28:34;;;;;;;20.77;14.48;;;14.60;82.80;;;;;;5023264;28;20505;-68
2021/07/23 03:30:59;;;;;;;19.08;13.20;;;14.60;83.00;;;;;;5028723;28;20048;-68
2021/07/23 03:33:25;;;;;;;22.25;13.98;;;14.60;82.90;;;;;;5021686;28;20667;-68
2021/07/23 03:35:51;;;;;;;19.13;13.43;;;14.60;83.10;;;;;;5027178;28;20473;-69
2021/07/23 03:38:16;;;;;;;18.83;13.02;;;14.60;83.10;;;;;;5025998;28;20045;-68
2021/07/23 03:40:42;;;;;;;17.67;12.32;;;14.60;83.20;;;;;;5031275;28;20030;-68
2021/07/23 03:43:07;;;;;;;18.35;12.90;;;14.60;83.50;;;;;;5024872;28;20045;-68
2021/07/23 03:45:33;;;;;;;18.75;13.55;;;14.60;83.20;;;;;;5032176;28;20089;-68
2021/07/23 03:47:59;;;;;;;19.30;13.98;;;14.50;82.90;;;;;;5030447;28;20049;-68
2021/07/23 03:50:25;;;;;;;20.58;12.48;;;14.40;83.00;;;;;;5028106;28;20369;-68
2021/07/23 03:52:51;;;;;;;18.92;13.13;;;14.40;83.30;;;;;;5029978;28;20047;-69
2021/07/23 03:55:16;;;;;;;21.17;12.55;;;14.30;83.70;;;;;;5029369;28;20367;-69
2021/07/23 03:57:42;;;;;;;18.35;11.98;;;14.30;83.90;;;;;;5030413;28;20029;-70
2021/07/23 04:00:09;;;;;;;21.08;13.80;;;14.30;83.90;;;;;;5032151;28;20025;-70
2021/07/23 04:02:37;;;;;;;18.90;13.18;;;14.30;84.00;;;;;;5033362;28;20048;-69
2021/07/23 04:05:04;;;;;;;19.70;12.60;;;14.30;84.00;;;;;;5030158;28;20039;-71
2021/07/23 04:07:33;;;;;;;17.13;12.23;;;14.30;84.10;;;;;;5032150;28;20041;-71
2021/07/23 04:09:59;;;;;;;16.27;11.45;;;14.40;84.00;;;;;;5027115;28;20041;-71
2021/07/23 04:12:26;;;;;;;17.80;12.57;;;14.60;83.60;;;;;;5032178;28;20045;-74
2021/07/23 04:14:52;;;;;;;17.27;11.77;;;14.60;83.40;;;;;;5034673;28;20044;-71
2021/07/23 04:17:17;;;;;;;15.40;11.48;;;14.70;83.20;;;;;;5033613;28;20034;-71
2021/07/23 04:19:43;;;;;;;18.30;11.52;;;14.80;82.70;;;;;;5029521;28;20125;-71
2021/07/23 04:22:08;;;;;;;17.15;11.65;;;14.80;82.30;;;;;;5026166;28;20087;-72
2021/07/23 04:24:34;;;;;;;17.55;12.18;;;14.90;81.80;;;;;;5029716;28;20033;-71
2021/07/23 04:27:00;;;;;;;17.58;11.50;;;14.90;81.90;;;;;;5032245;28;20552;-72
2021/07/23 04:29:26;;;;;;;18.10;12.50;;;14.90;81.80;;;;;;5032028;28;20033;-73
2021/07/23 04:31:51;;;;;;;18.80;13.00;;;14.90;81.80;;;;;;5030185;28;20071;-72
2021/07/23 04:34:17;;;;;;;21.38;13.85;;;14.90;81.90;;;;;;5028904;28;20049;-72
2021/07/23 04:36:43;;;;;;;16.65;12.52;;;14.90;81.90;;;;;;5034051;28;20067;-71
2021/07/23 04:39:08;;;;;;;20.13;13.90;;;15.00;81.90;;;;;;5028962;28;20461;-74
2021/07/23 04:41:34;;;;;;;22.33;15.35;;;15.00;81.90;;;;;;5036853;28;20041;-71
2021/07/23 04:44:00;;;;;;;20.27;14.27;;;15.00;81.90;;;;;;5031766;28;20036;-71
2021/07/23 04:46:26;;;;;;;19.63;14.48;;;15.00;81.60;;;;;;5026238;28;20032;-71
2021/07/23 04:48:51;;;;;;;22.33;15.73;;;15.10;81.60;;;;;;5030331;28;20963;-72
2021/07/23 04:51:17;;;;;;;20.30;15.10;;;15.00;81.40;;;;;;5027905;28;20119;-71
2021/07/23 04:53:43;;;;;;;19.73;15.15;;;15.10;81.50;;;;;;5028980;28;20431;-72
2021/07/23 04:56:08;;;;;;;20.25;13.77;;;15.10;81.50;;;;;;5026531;28;20055;-76
2021/07/23 04:58:34;;;;;;;18.83;13.82;;;15.20;81.50;;;;;;5030093;28;20061;-72
2021/07/23 05:01:00;;;;;;;20.48;15.02;;;15.30;81.30;;;;;;5028937;28;20606;-71
2021/07/23 05:03:44;;;;;;;20.77;14.35;;;15.30;81.20;;;;;;5030780;28;20033;-71
2021/07/23 05:06:10;;;;;;;20.45;14.77;;;15.30;81.10;;;;;;5030360;28;20021;-72
2021/07/23 05:08:36;;;;;;;19.55;14.32;;;15.30;81.00;;;;;;5028986;28;20550;-72
2021/07/23 05:11:05;;;;;;;23.65;16.85;;;15.40;81.00;;;;;;5029778;28;20064;-72
2021/07/23 05:13:34;;;;;;;21.70;17.13;;;15.40;81.00;;;;;;5021348;28;20053;-71
2021/07/23 05:16:00;;;;;;;23.40;17.48;;;15.40;81.10;;;;;;5020155;28;20469;-72
2021/07/23 05:18:27;;;;;;;23.35;16.45;;;15.40;81.10;;;;;;5024715;28;20029;-72
2021/07/23 05:20:53;;;;;;;19.55;15.48;;;15.50;81.30;;;;;;5021601;28;20386;-75
2021/07/23 05:23:19;;;;;;;21.92;15.05;;;15.30;81.60;;;;;;5025852;28;20607;-71
2021/07/23 05:25:45;;;;;;;21.02;15.35;;;15.20;82.00;;;;;;5024171;28;20054;-71
2021/07/23 05:28:10;;;;;;;19.88;14.32;;;15.30;82.30;;;;;;5024076;28;20132;-72
2021/07/23 05:30:36;;;;;;;18.30;13.25;;;16.40;79.20;;;;;;5022278;28;20033;-72
2021/07/23 05:33:02;;;;;;;21.90;14.18;;;17.60;75.20;;;;;;5022210;28;20481;-74
2021/07/23 05:35:27;;;;;;;20.63;12.40;;;18.50;72.30;;;;;;5026570;28;20503;-71
2021/07/23 05:37:53;;;;;;;17.42;12.57;;;19.20;67.90;;;;;;5024914;28;20132;-71
2021/07/23 05:40:19;;;;;;;17.15;12.48;;;19.70;67.00;;;;;;5020870;28;20062;-71
2021/07/23 05:42:44;;;;;;;17.00;11.98;;;20.60;64.30;;;;;;5021205;28;20042;-73
2021/07/23 05:45:10;;;;;;;16.10;11.70;;;20.60;64.10;;;;;;5028362;28;20040;-72
2021/07/23 05:47:36;;;;;;;15.82;10.80;;;21.40;60.10;;;;;;5019809;28;20041;-72
2021/07/23 05:50:02;;;;;;;15.45;11.13;;;21.40;60.90;;;;;;5022973;28;20354;-76
2021/07/23 05:52:27;;;;;;;14.50;11.43;;;21.50;60.90;;;;;;5017600;28;20112;-71
2021/07/23 05:54:53;;;;;;;17.75;11.57;;;21.50;60.40;;;;;;5029664;28;20111;-71
2021/07/23 05:57:19;;;;;;;19.52;12.32;;;21.70;60.20;;;;;;5028694;28;20369;-71
2021/07/23 05:59:47;;;;;;;18.30;12.63;;;21.50;59.50;;;;;;5024004;28;20033;-74
2021/07/23 06:02:13;;;;;;;18.52;12.82;;;20.50;63.10;;;;;;5016176;28;20061;-73
2021/07/23 06:04:39;;;;;;;18.08;12.40;;;20.20;64.60;;;;;;5020595;28;20038;-71
2021/07/23 06:07:05;;;;;;;15.43;12.32;;;19.60;66.10;;;;;;5017650;28;20539;-74
2021/07/23 06:09:32;;;;;;;18.23;12.75;;;19.00;68.30;;;;;;5022953;28;20042;-71
2021/07/23 06:11:58;;;;;;;19.45;13.65;;;18.10;71.10;;;;;;5021989;28;20034;-74
2021/07/23 06:14:24;;;;;;;16.73;12.52;;;17.80;72.90;;;;;;5025169;28;20487;-71
2021/07/23 06:16:50;;;;;;;17.75;12.43;;;17.60;72.80;;;;;;5018027;28;20026;-71
2021/07/23 06:19:16;;;;;;;20.08;13.23;;;17.30;74.20;;;;;;5022594;28;20037;-71
2021/07/23 06:21:41;;;;;;;18.63;13.38;;;17.40;75.10;;;;;;5023340;28;20048;-71
2021/07/23 06:24:07;;;;;;;20.00;13.30;;;17.30;75.20;;;;;;5025219;28;20045;-74
2021/07/23 06:26:37;;;;;;;17.63;13.02;;;17.10;75.70;;;;;;5022109;28;20492;-72
2021/07/23 06:29:03;;;;;;;17.13;12.60;;;17.20;76.20;;;;;;5021307;28;20117;-72
2021/07/23 06:31:28;;;;;;;18.83;12.40;;;17.50;75.10;;;;;;5019804;28;20153;-75
2021/07/23 06:33:54;;;;;;;18.55;13.68;;;17.60;75.30;;;;;;5021225;28;20107;-72
2021/07/23 06:36:20;;;;;;;21.17;13.02;;;17.60;75.00;;;;;;5022142;28;20033;-71
2021/07/23 06:38:46;;;;;;;17.52;12.73;;;17.60;74.60;;;;;;5020659;28;20165;-71
2021/07/23 06:41:11;;;;;;;15.70;12.60;;;17.60;74.60;;;;;;5017036;28;20025;-72
2021/07/23 06:43:37;;;;;;;17.77;13.27;;;17.80;74.50;;;;;;5024204;28;20048;-74
2021/07/23 06:46:03;;;;;;;17.10;12.85;;;17.80;74.00;;;;;;5023785;28;20396;-75
2021/07/23 06:48:28;;;;;;;18.05;13.05;;;18.00;73.70;;;;;;5026942;28;20038;-72
2021/07/23 06:50:54;;;;;;;16.63;12.05;;;18.30;72.60;;;;;;5024770;28;20419;-72
2021/07/23 06:53:20;;;;;;;17.70;13.13;;;18.20;73.20;;;;;;5025221;28;20057;-72
2021/07/23 06:55:46;;;;;;;17.70;12.07;;;18.10;73.70;;;;;;5024977;28;20038;-68
2021/07/23 06:58:12;;;;;;;16.73;12.02;;;18.30;72.40;;;;;;5029584;28;20504;-71
2021/07/23 07:00:38;;;;;;;15.60;11.98;;;18.30;72.40;;;;;;5030980;28;20029;-68
2021/07/23 07:03:07;;;;;;;17.55;12.43;;;18.50;71.80;;;;;;5029720;28;20041;-68
2021/07/23 07:05:33;;;;;;;17.55;12.43;;;18.60;70.40;;;;;;5031414;28;20064;-68
2021/07/23 07:07:59;;;;;;;17.00;13.27;;;18.60;70.50;;;;;;5024891;28;20388;-67
2021/07/23 07:10:25;;;;;;;17.00;12.50;;;18.60;71.00;;;;;;5028817;28;20509;-68
2021/07/23 07:12:56;;;;;;;15.13;11.55;;;18.70;70.40;;;;;;5027461;28;20040;-68
2021/07/23 07:15:22;;;;;;;17.35;11.80;;;18.80;69.90;;;;;;5029203;28;20061;-68
2021/07/23 07:17:47;;;;;;;17.08;11.55;;;19.30;69.10;;;;;;5023998;28;20137;-67
2021/07/23 07:20:13;;;;;;;15.20;10.85;;;19.70;67.70;;;;;;5024400;28;20056;-68
2021/07/23 07:22:39;;;;;;;15.05;11.15;;;19.90;67.40;;;;;;5030296;28;20048;-69
2021/07/23 07:25:07;;;;;;;15.13;11.13;;;20.20;66.50;;;;;;5025499;28;20033;-68
2021/07/23 07:27:33;;;;;;;14.80;11.45;;;20.40;64.30;;;;;;5024816;28;20476;-67
2021/07/23 07:29:59;;;;;;;15.95;11.45;;;20.60;63.90;;;;;;5024820;28;20087;-68
2021/07/23 07:32:25;;;;;;;15.02;10.90;;;20.90;64.40;;;;;;5025947;28;20099;-68
2021/07/23 07:34:51;;;;;;;14.77;10.15;;;20.60;62.90;;;;;;5025641;28;20033;-68
2021/07/23 07:37:17;;;;;;;14.85;10.80;;;20.30;63.30;;;;;;5022785;28;20052;-68
2021/07/23 07:39:42;;;;;;;14.52;10.40;;;20.00;64.20;;;;;;5028449;28;20030;-69
2021/07/23 07:42:08;;;;;;;18.52;11.57;;;20.00;64.90;;;;;;5025638;28;20061;-69
2021/07/23 07:44:34;;;;;;;15.02;11.18;;;20.00;65.10;;;;;;5029756;28;20604;-69
2021/07/23 07:46:59;;;;;;;17.50;11.93;;;20.00;64.80;;;;;;5032205;28;20032;-69
2021/07/23 07:49:25;;;;;;;16.65;11.48;;;19.80;65.30;;;;;;5027135;28;20038;-69
2021/07/23 07:51:51;;;;;;;15.45;12.10;;;19.80;66.10;;;;;;5028340;28;20033;-80
2021/07/23 07:54:17;;;;;;;14.85;11.57;;;19.90;65.40;;;;;;5028494;28;20087;-76
2021/07/23 07:56:44;;;;;;;15.43;10.77;;;20.00;66.00;;;;;;5031465;28;20041;-77
2021/07/23 07:59:10;;;;;;;17.02;11.43;;;20.30;65.00;;;;;;5031440;28;20041;-76
2021/07/23 08:01:35;;;;;;;15.38;10.77;;;20.50;64.10;;;;;;5029805;28;20052;-76
2021/07/23 08:04:01;;;;;;;15.65;11.15;;;20.90;64.20;;;;;;5030881;28;20053;-70
2021/07/23 08:06:32;;;;;;;15.88;11.23;;;20.50;63.10;;;;;;5028269;28;20064;-69
2021/07/23 08:09:04;;;;;;;17.27;11.35;;;20.60;63.20;;;;;;5029580;28;20053;-68
2021/07/23 08:11:31;;;;;;;17.63;11.13;;;20.30;64.40;;;;;;5029773;28;20494;-69
2021/07/23 08:13:57;;;;;;;17.77;11.35;;;20.60;64.20;;;;;;5028627;28;20033;-70
2021/07/23 08:16:22;;;;;;;13.30;10.48;;;20.60;63.20;;;;;;5024648;28;20447;-69
2021/07/23 08:18:48;;;;;;;15.50;11.65;;;20.50;63.80;;;;;;5022199;28;20041;-69
2021/07/23 08:21:14;;;;;;;13.13;10.18;;;20.70;63.20;;;;;;5023081;28;20051;-69
2021/07/23 08:23:40;;;;;;;13.10;10.07;;;21.00;62.80;;;;;;5022522;28;20469;-72
2021/07/23 08:26:06;;;;;;;15.38;11.50;;;21.20;62.90;;;;;;5026661;28;20102;-69
2021/07/23 08:28:32;;;;;;;15.52;10.70;;;21.10;61.80;;;;;;5023347;28;20040;-69
2021/07/23 08:30:58;;;;;;;13.65;11.07;;;21.40;62.10;;;;;;5024150;28;20033;-71
2021/07/23 08:33:24;;;;;;;16.83;11.23;;;21.80;60.40;;;;;;5029374;28;20051;-70
2021/07/23 08:35:50;;;;;;;16.33;11.40;;;22.00;58.70;;;;;;5032106;28;20041;-71
2021/07/23 08:38:16;;;;;;;15.05;10.65;;;21.80;59.60;;;;;;5032088;28;20041;-70
2021/07/23 08:40:42;;;;;;;15.38;11.43;;;21.30;61.30;;;;;;5030592;28;20033;-69
2021/07/23 08:43:08;;;;;;;15.32;11.60;;;21.40;60.90;;;;;;5031005;28;20080;-69
2021/07/23 08:45:34;;;;;;;14.82;10.82;;;21.60;60.40;;;;;;5030178;28;20075;-70
2021/07/23 08:48:00;;;;;;;16.35;12.40;;;21.20;61.80;;;;;;5033385;28;20040;-69
2021/07/23 08:50:26;;;;;;;16.75;11.82;;;21.00;61.90;;;;;;5030552;28;20029;-69
2021/07/23 08:52:54;;;;;;;15.10;11.93;;;21.20;61.20;;;;;;5028736;28;20055;-70
2021/07/23 08:55:20;;;;;;;15.13;11.73;;;21.50;60.80;;;;;;5030675;28;20040;-70
2021/07/23 08:57:47;;;;;;;17.42;12.45;;;21.90;60.00;;;;;;5028254;28;20092;-70
2021/07/23 09:00:14;;;;;;;18.83;13.07;;;22.20;59.30;;;;;;5029385;28;20455;-70
2021/07/23 09:02:50;;;;;;;15.23;11.90;;;22.00;60.10;;;;;;5028214;28;20041;-70
2021/07/23 09:05:16;;;;;;;15.95;11.52;;;22.00;60.90;;;;;;5030003;28;20037;-70
2021/07/23 09:07:42;;;;;;;16.48;11.48;;;22.30;59.80;;;;;;5025850;28;20412;-73
2021/07/23 09:10:08;;;;;;;16.85;11.43;;;22.60;57.10;;;;;;5029574;28;20496;-69
2021/07/23 09:12:43;;;;;;;15.00;11.40;;;22.60;58.80;;;;;;5028108;28;20441;-70
2021/07/23 09:15:18;;;;;;;14.95;11.38;;;22.50;58.50;;;;;;5032437;28;20048;-70
2021/07/23 09:17:44;;;;;;;17.42;11.85;;;22.60;57.30;;;;;;5024968;28;20034;-69
2021/07/23 09:20:11;;;;;;;13.65;10.18;;;22.60;57.50;;;;;;5028762;28;20182;-71
2021/07/23 09:22:44;;;;;;;15.23;11.15;;;22.30;58.40;;;;;;5028407;28;20543;-71
2021/07/23 09:25:10;;;;;;;15.50;11.10;;;22.00;58.70;;;;;;5031359;28;20040;-70
2021/07/23 09:27:36;;;;;;;16.25;11.07;;;22.60;57.70;;;;;;5033105;28;20108;-71
2021/07/23 09:30:06;;;;;;;13.70;10.40;;;23.00;56.30;;;;;;5025900;28;20124;-70
2021/07/23 09:32:32;;;;;;;16.77;11.07;;;23.20;55.10;;;;;;5022177;28;20036;-74
2021/07/23 09:35:12;;;;;;;15.02;11.57;;;23.60;54.80;;;;;;5025107;28;20049;-70
2021/07/23 09:37:58;;;;;;;13.50;10.25;;;23.00;55.10;;;;;;5031352;28;20037;-72
2021/07/23 09:40:25;;;;;;;13.20;9.05;;;23.40;54.70;;;;;;5021887;28;20044;-71
2021/07/23 09:42:57;;;;;;;16.73;9.50;;;23.80;55.30;;;;;;5033311;28;20095;-71
2021/07/23 09:45:30;;;;;;;12.80;9.52;;;23.80;52.80;;;;;;5032332;28;20050;-71
2021/07/23 09:48:13;;;;;;;16.42;10.50;;;23.30;54.20;;;;;;5027597;28;20488;-70
2021/07/23 09:50:40;;;;;;;16.27;11.68;;;23.10;53.90;;;;;;5029676;28;20463;-70
2021/07/23 09:53:08;;;;;;;15.30;11.00;;;22.80;55.50;;;;;;5025136;28;20576;-71
2021/07/23 09:55:34;;;;;;;15.38;9.20;;;22.70;55.60;;;;;;5040008;28;20586;-70
2021/07/23 09:58:04;;;;;;;14.65;10.45;;;23.30;55.00;;;;;;5030953;28;20113;-71
2021/07/23 10:00:35;;;;;;;14.98;10.15;;;23.10;55.10;;;;;;5028498;28;20075;-70
2021/07/23 10:03:04;;;;;;;13.82;10.43;;;22.70;55.90;;;;;;5028741;28;20038;-72
2021/07/23 10:05:34;;;;;;;12.95;9.60;;;22.60;56.20;;;;;;5028518;28;20061;-70
2021/07/23 10:08:08;;;;;;;14.50;9.20;;;22.90;54.10;;;;;;5029239;28;20041;-70
2021/07/23 10:10:36;;;;;;;13.80;9.73;;;22.80;56.10;;;;;;5027182;28;20099;-69
2021/07/23 10:13:03;;;;;;;17.35;11.07;;;23.10;54.90;;;;;;5030134;28;20152;-71
2021/07/23 10:15:29;;;;;;;16.08;9.43;;;23.60;52.80;;;;;;5025184;28;20026;-69
2021/07/23 10:17:55;;;;;;;11.98;8.45;;;23.90;51.80;;;;;;5032780;28;20423;-69
2021/07/23 10:20:20;;;;;;;13.32;9.05;;;23.90;52.70;;;;;;5032577;28;20118;-71
2021/07/23 10:22:53;;;;;;;11.93;8.82;;;24.00;50.80;;;;;;5027226;28;20590;-69
2021/07/23 10:25:25;;;;;;;12.52;8.88;;;23.80;51.90;;;;;;5028415;28;20033;-70
2021/07/23 10:27:52;;;;;;;12.15;9.00;;;24.30;50.40;;;;;;5027315;28;20480;-68
2021/07/23 10:30:33;;;;;;;12.65;9.50;;;24.40;48.80;;;;;;5026911;28;20034;-69
2021/07/23 10:32:59;;;;;;;15.15;10.30;;;24.40;49.20;;;;;;5026443;28;20041;-70
2021/07/23 10:35:25;;;;;;;14.52;10.52;;;24.90;50.60;;;;;;5026084;28;20038;-70
2021/07/23 10:37:55;;;;;;;11.63;8.95;;;24.90;49.00;;;;;;5028010;28;20037;-70
2021/07/23 10:40:41;;;;;;;13.23;9.63;;;25.00;49.30;;;;;;5027447;28;20033;-69
2021/07/23 10:43:33;;;;;;;10.25;7.80;;;25.00;48.60;;;;;;5031110;28;20034;-70
2021/07/23 10:45:59;;;;;;;14.43;8.30;;;25.00;49.00;;;;;;5028789;28;20160;-69
2021/07/23 10:48:45;;;;;;;10.30;7.90;;;25.50;47.70;;;;;;5029200;28;20113;-69
2021/07/23 10:51:49;;;;;;;17.30;10.55;;;25.70;44.30;;;;;;5030165;28;20033;-72
2021/07/23 10:54:16;;;;;;;11.27;7.50;;;25.10;48.60;;;;;;5020657;28;20123;-71
2021/07/23 10:57:00;;;;;;;14.95;9.98;;;25.50;47.50;;;;;;5026465;28;20045;-70
2021/07/23 10:59:38;;;;;;;13.32;8.63;;;25.60;46.80;;;;;;5021904;28;20504;-72
2021/07/23 11:02:08;;;;;;;16.00;12.07;;;26.00;46.40;;;;;;5020640;28;20408;-70
2021/07/23 11:04:33;;;;;;;15.32;10.85;;;25.80;46.40;;;;;;5029374;28;20060;-69
2021/07/23 11:07:03;;;;;;;16.95;11.50;;;25.40;46.70;;;;;;5032339;28;20049;-70
2021/07/23 11:09:31;;;;;;;13.98;10.52;;;25.20;48.40;;;;;;5026644;28;20133;-71
2021/07/23 11:12:18;;;;;;;14.40;9.35;;;25.10;47.80;;;;;;5031985;28;20373;-71
2021/07/23 11:14:53;;;;;;;16.10;11.38;;;25.60;47.00;;;;;;5024275;28;20477;-79
2021/07/23 11:17:19;;;;;;;14.98;10.05;;;24.80;47.50;;;;;;5018609;28;20041;-71
2021/07/23 11:19:52;;;;;;;12.27;8.90;;;25.00;48.00;;;;;;5023357;28;20049;-71
2021/07/23 11:22:25;;;;;;;12.95;9.45;;;25.50;47.60;;;;;;5017727;28;20125;-71
2021/07/23 11:24:56;;;;;;;17.20;9.95;;;25.60;44.30;;;;;;5026200;28;20029;-71
2021/07/23 11:27:24;;;;;;;14.40;10.13;;;25.20;46.20;;;;;;5026256;28;20426;-71
2021/07/23 11:29:50;;;;;;;16.20;11.02;;;24.90;46.90;;;;;;5028411;28;20038;-70
2021/07/23 11:32:17;;;;;;;16.33;11.20;;;25.00;47.30;;;;;;5032751;28;20047;-71
2021/07/23 11:34:47;;;;;;;15.43;9.50;;;25.30;45.90;;;;;;5023104;28;20407;-69
2021/07/23 11:37:18;;;;;;;15.57;9.43;;;25.40;48.20;;;;;;5028500;28;20038;-70
2021/07/23 11:40:00;;;;;;;14.40;9.40;;;25.90;47.00;;;;;;5016898;28;20037;-70
2021/07/23 11:42:27;;;;;;;15.50;10.75;;;25.50;45.70;;;;;;5025599;28;20115;-72
2021/07/23 11:45:00;;;;;;;12.55;9.57;;;25.50;45.60;;;;;;5029191;28;20037;-71
2021/07/23 11:47:29;;;;;;;11.93;9.10;;;25.80;46.30;;;;;;5033860;28;20033;-72
2021/07/23 11:49:56;;;;;;;14.63;10.18;;;25.70;44.50;;;;;;5009331;28;20038;-71
2021/07/23 11:52:23;;;;;;;16.38;10.52;;;25.80;45.60;;;;;;5015450;28;20037;-70
2021/07/23 11:55:00;;;;;;;16.50;11.90;;;25.70;44.50;;;;;;5014061;28;20026;-69
2021/07/23 11:57:28;;;;;;;14.55;10.55;;;25.20;45.90;;;;;;5014848;28;20516;-69
2021/07/23 11:59:54;;;;;;;14.13;11.15;;;25.60;46.30;;;;;;5016403;28;20064;-69
2021/07/23 12:02:27;;;;;;;16.10;8.50;;;25.80;44.70;;;;;;5009310;28;20390;-71
2021/07/23 12:05:11;;;;;;;15.88;9.80;;;26.10;43.30;;;;;;5007105;28;20056;-69
2021/07/23 12:07:37;;;;;;;15.00;10.75;;;26.50;43.50;;;;;;5008049;28;20089;-69
2021/07/23 12:10:08;;;;;;;13.32;9.27;;;25.80;45.10;;;;;;5007696;28;20030;-71
2021/07/23 12:12:35;;;;;;;12.07;8.43;;;25.10;45.50;;;;;;4999252;28;20046;-70
2021/07/23 12:15:07;;;;;;;13.57;9.50;;;25.70;43.40;;;;;;5016039;28;20041;-71
2021/07/23 12:17:34;;;;;;;17.63;10.27;;;25.80;43.00;;;;;;5027975;28;20473;-70
2021/07/23 12:20:00;;;;;;;13.25;9.32;;;26.10;43.50;;;;;;5022657;28;20532;-70
2021/07/23 12:22:26;;;;;;;11.38;7.38;;;25.70;42.60;;;;;;5025977;28;20565;-72
2021/07/23 12:24:51;;;;;;;12.00;8.00;;;25.60;44.40;;;;;;5026440;28;20054;-70
2021/07/23 12:27:24;;;;;;;12.77;8.30;;;25.50;43.30;;;;;;5024040;28;20525;-70
2021/07/23 12:29:51;;;;;;;14.10;8.20;;;25.90;44.30;;;;;;5026770;28;20044;-70